sensor_id;sensor_type;location;lat;lon;timestamp;pressure;altitude;pressure_sealevel;temperature
79053;BMP280;68451;49.510;6.026;2023-04-19T00:00:05;98700.25;;;6.89
79053;BMP280;68451;49.510;6.026;2023-04-19T00:02:33;98656.16;;;6.59
79053;BMP280;68451;49.510;6.026;2023-04-19T00:04:59;98700.50;;;6.79
79053;BMP280;68451;49.510;6.026;2023-04-19T00:07:24;98730.75;;;7.01
79053;BMP280;68451;49.510;6.026;2023-04-19T00:09:50;98708.22;;;6.87
79053;BMP280;68451;49.510;6.026;2023-04-19T00:12:16;98674.84;;;6.69
79053;BMP280;68451;49.510;6.026;2023-04-19T00:14:41;98693.63;;;6.71
79053;BMP280;68451;49.510;6.026;2023-04-19T00:17:07;98704.63;;;6.88
79053;BMP280;68451;49.510;6.026;2023-04-19T00:19:32;98681.38;;;6.80
79053;BMP280;68451;49.510;6.026;2023-04-19T00:21:57;98735.88;;;7.09
79053;BMP280;68451;49.510;6.026;2023-04-19T00:24:23;98642.91;;;6.54
79053;BMP280;68451;49.510;6.026;2023-04-19T00:26:49;98726.81;;;7.05
79053;BMP280;68451;49.510;6.026;2023-04-19T00:29:14;98694.72;;;6.92
79053;BMP280;68451;49.510;6.026;2023-04-19T00:31:40;98656.03;;;6.67
79053;BMP280;68451;49.510;6.026;2023-04-19T00:34:05;98541.91;;;5.94
79053;BMP280;68451;49.510;6.026;2023-04-19T00:36:31;98656.84;;;6.68
79053;BMP280;68451;49.510;6.026;2023-04-19T00:38:56;98708.72;;;6.97
79053;BMP280;68451;49.510;6.026;2023-04-19T00:41:22;98704.63;;;6.88
79053;BMP280;68451;49.510;6.026;2023-04-19T00:43:47;98696.13;;;6.80
79053;BMP280;68451;49.510;6.026;2023-04-19T00:46:14;98703.56;;;6.83
79053;BMP280;68451;49.510;6.026;2023-04-19T00:48:40;98698.13;;;6.78
79053;BMP280;68451;49.510;6.026;2023-04-19T00:51:06;98634.38;;;6.31
79053;BMP280;68451;49.510;6.026;2023-04-19T00:53:32;98606.22;;;6.13
79053;BMP280;68451;49.510;6.026;2023-04-19T00:56:01;98724.94;;;6.85
79053;BMP280;68451;49.510;6.026;2023-04-19T00:58:28;98465.88;;;5.20
79053;BMP280;68451;49.510;6.026;2023-04-19T01:00:56;98627.50;;;6.23
79053;BMP280;68451;49.510;6.026;2023-04-19T01:03:21;98699.34;;;6.67
79053;BMP280;68451;49.510;6.026;2023-04-19T01:05:46;98697.13;;;6.64
79053;BMP280;68451;49.510;6.026;2023-04-19T01:08:13;98689.06;;;6.59
79053;BMP280;68451;49.510;6.026;2023-04-19T01:10:39;98708.84;;;6.74
79053;BMP280;68451;49.510;6.026;2023-04-19T01:13:04;98686.03;;;6.55
79053;BMP280;68451;49.510;6.026;2023-04-19T01:15:30;98649.25;;;6.37
79053;BMP280;68451;49.510;6.026;2023-04-19T01:17:56;98679.22;;;6.54
79053;BMP280;68451;49.510;6.026;2023-04-19T01:20:22;98655.25;;;6.38
79053;BMP280;68451;49.510;6.026;2023-04-19T01:22:47;98681.00;;;6.54
79053;BMP280;68451;49.510;6.026;2023-04-19T01:25:13;98672.50;;;6.45
79053;BMP280;68451;49.510;6.026;2023-04-19T01:27:38;98636.09;;;6.24
79053;BMP280;68451;49.510;6.026;2023-04-19T01:30:04;98671.69;;;6.45
79053;BMP280;68451;49.510;6.026;2023-04-19T01:32:30;98619.53;;;6.10
79053;BMP280;68451;49.510;6.026;2023-04-19T01:34:56;98677.69;;;6.45
79053;BMP280;68451;49.510;6.026;2023-04-19T01:37:21;98430.88;;;4.87
79053;BMP280;68451;49.510;6.026;2023-04-19T01:39:47;98693.09;;;6.47
79053;BMP280;68451;49.510;6.026;2023-04-19T01:42:12;98621.22;;;6.03
79053;BMP280;68451;49.510;6.026;2023-04-19T01:44:38;98668.28;;;6.29
79053;BMP280;68451;49.510;6.026;2023-04-19T01:47:04;98593.34;;;5.82
79053;BMP280;68451;49.510;6.026;2023-04-19T01:49:29;98659.88;;;6.27
79053;BMP280;68451;49.510;6.026;2023-04-19T01:51:55;98689.25;;;6.43
79053;BMP280;68451;49.510;6.026;2023-04-19T01:54:20;98616.22;;;6.02
79053;BMP280;68451;49.510;6.026;2023-04-19T01:56:46;98663.44;;;6.26
79053;BMP280;68451;49.510;6.026;2023-04-19T01:59:11;98680.53;;;6.36
79053;BMP280;68451;49.510;6.026;2023-04-19T02:01:37;98646.28;;;6.11
79053;BMP280;68451;49.510;6.026;2023-04-19T02:04:02;98647.69;;;6.13
79053;BMP280;68451;49.510;6.026;2023-04-19T02:06:28;98615.13;;;5.96
79053;BMP280;68451;49.510;6.026;2023-04-19T02:08:53;98617.63;;;6.04
79053;BMP280;68451;49.510;6.026;2023-04-19T02:11:19;98647.81;;;6.20
79053;BMP280;68451;49.510;6.026;2023-04-19T02:13:45;98668.50;;;6.43
79053;BMP280;68451;49.510;6.026;2023-04-19T02:16:10;98524.78;;;5.56
79053;BMP280;68451;49.510;6.026;2023-04-19T02:18:36;98668.13;;;6.46
79053;BMP280;68451;49.510;6.026;2023-04-19T02:21:04;98672.06;;;6.42
79053;BMP280;68451;49.510;6.026;2023-04-19T02:23:30;98597.78;;;5.97
79053;BMP280;68451;49.510;6.026;2023-04-19T02:25:55;98664.00;;;6.37
79053;BMP280;68451;49.510;6.026;2023-04-19T02:28:21;98606.47;;;6.04
79053;BMP280;68451;49.510;6.026;2023-04-19T02:30:46;98656.22;;;6.37
79053;BMP280;68451;49.510;6.026;2023-04-19T02:33:12;98602.34;;;5.95
79053;BMP280;68451;49.510;6.026;2023-04-19T02:35:37;98660.78;;;6.35
79053;BMP280;68451;49.510;6.026;2023-04-19T02:38:03;98515.03;;;5.43
79053;BMP280;68451;49.510;6.026;2023-04-19T02:40:29;98642.78;;;6.18
79053;BMP280;68451;49.510;6.026;2023-04-19T02:42:55;98624.53;;;6.12
79053;BMP280;68451;49.510;6.026;2023-04-19T02:45:20;98601.66;;;6.01
79053;BMP280;68451;49.510;6.026;2023-04-19T02:47:46;98632.84;;;6.22
79053;BMP280;68451;49.510;6.026;2023-04-19T02:50:12;98561.44;;;5.82
79053;BMP280;68451;49.510;6.026;2023-04-19T02:52:38;98654.44;;;6.52
79053;BMP280;68451;49.510;6.026;2023-04-19T02:55:05;98586.16;;;6.07
79053;BMP280;68451;49.510;6.026;2023-04-19T02:57:30;98663.81;;;6.53
79053;BMP280;68451;49.510;6.026;2023-04-19T02:59:56;98654.78;;;6.49
79053;BMP280;68451;49.510;6.026;2023-04-19T03:02:23;98593.63;;;6.10
79053;BMP280;68451;49.510;6.026;2023-04-19T03:04:49;98658.09;;;6.57
79053;BMP280;68451;49.510;6.026;2023-04-19T03:07:14;98629.66;;;6.35
79053;BMP280;68451;49.510;6.026;2023-04-19T03:09:40;98652.84;;;6.51
79053;BMP280;68451;49.510;6.026;2023-04-19T03:12:06;98510.94;;;5.63
79053;BMP280;68451;49.510;6.026;2023-04-19T03:14:32;98648.47;;;6.51
79053;BMP280;68451;49.510;6.026;2023-04-19T03:17:01;98648.25;;;6.53
79053;BMP280;68451;49.510;6.026;2023-04-19T03:19:27;98571.44;;;6.08
79053;BMP280;68451;49.510;6.026;2023-04-19T03:21:52;98646.91;;;6.57
79053;BMP280;68451;49.510;6.026;2023-04-19T03:24:18;98628.84;;;6.49
79053;BMP280;68451;49.510;6.026;2023-04-19T03:26:44;98548.28;;;6.06
79053;BMP280;68451;49.510;6.026;2023-04-19T03:29:10;98600.13;;;6.36
79053;BMP280;68451;49.510;6.026;2023-04-19T03:31:36;98660.06;;;6.70
79053;BMP280;68451;49.510;6.026;2023-04-19T03:34:01;98642.16;;;6.75
79053;BMP280;68451;49.510;6.026;2023-04-19T03:36:52;98649.22;;;6.81
79053;BMP280;68451;49.510;6.026;2023-04-19T03:39:18;98615.59;;;6.73
79053;BMP280;68451;49.510;6.026;2023-04-19T03:41:44;98643.41;;;6.94
79053;BMP280;68451;49.510;6.026;2023-04-19T03:44:09;98425.38;;;5.57
79053;BMP280;68451;49.510;6.026;2023-04-19T03:46:35;98392.78;;;5.33
79053;BMP280;68451;49.510;6.026;2023-04-19T03:49:00;98588.69;;;6.59
79053;BMP280;68451;49.510;6.026;2023-04-19T03:51:26;98617.53;;;6.86
79053;BMP280;68451;49.510;6.026;2023-04-19T03:53:51;98602.63;;;6.73
79053;BMP280;68451;49.510;6.026;2023-04-19T03:56:17;98522.25;;;6.29
79053;BMP280;68451;49.510;6.026;2023-04-19T03:58:42;98592.50;;;6.78
79053;BMP280;68451;49.510;6.026;2023-04-19T04:01:17;98566.03;;;6.68
79053;BMP280;68451;49.510;6.026;2023-04-19T04:03:42;98610.16;;;7.04
79053;BMP280;68451;49.510;6.026;2023-04-19T04:06:08;98573.53;;;6.78
79053;BMP280;68451;49.510;6.026;2023-04-19T04:08:33;98453.25;;;5.99
79053;BMP280;68451;49.510;6.026;2023-04-19T04:10:59;98600.25;;;6.93
79053;BMP280;68451;49.510;6.026;2023-04-19T04:13:24;98461.75;;;6.07
79053;BMP280;68451;49.510;6.026;2023-04-19T04:15:50;98571.09;;;6.76
79053;BMP280;68451;49.510;6.026;2023-04-19T04:18:16;98635.84;;;7.13
79053;BMP280;68451;49.510;6.026;2023-04-19T04:20:42;98567.28;;;6.72
79053;BMP280;68451;49.510;6.026;2023-04-19T04:23:08;98623.22;;;7.10
79053;BMP280;68451;49.510;6.026;2023-04-19T04:25:35;98514.16;;;6.53
79053;BMP280;68451;49.510;6.026;2023-04-19T04:28:05;98590.47;;;7.09
79053;BMP280;68451;49.510;6.026;2023-04-19T04:30:32;98625.31;;;7.36
79053;BMP280;68451;49.510;6.026;2023-04-19T04:32:58;98626.72;;;7.39
79053;BMP280;68451;49.510;6.026;2023-04-19T04:35:24;98630.53;;;7.43
79053;BMP280;68451;49.510;6.026;2023-04-19T04:37:50;98552.97;;;6.97
79053;BMP280;68451;49.510;6.026;2023-04-19T04:40:18;98624.97;;;7.46
79053;BMP280;68451;49.510;6.026;2023-04-19T04:42:43;98628.44;;;7.53
79053;BMP280;68451;49.510;6.026;2023-04-19T04:45:09;98620.84;;;7.51
79053;BMP280;68451;49.510;6.026;2023-04-19T04:47:36;98595.97;;;7.42
79053;BMP280;68451;49.510;6.026;2023-04-19T04:50:02;98647.47;;;7.81
79053;BMP280;68451;49.510;6.026;2023-04-19T04:52:28;98601.34;;;7.62
79053;BMP280;68451;49.510;6.026;2023-04-19T04:54:54;98572.66;;;7.49
79053;BMP280;68451;49.510;6.026;2023-04-19T04:57:19;98631.78;;;7.89
79053;BMP280;68451;49.510;6.026;2023-04-19T04:59:45;98599.59;;;7.69
79053;BMP280;68451;49.510;6.026;2023-04-19T05:02:13;98610.72;;;7.84
79053;BMP280;68451;49.510;6.026;2023-04-19T05:04:38;98647.47;;;8.02
79053;BMP280;68451;49.510;6.026;2023-04-19T05:07:04;98576.34;;;7.61
79053;BMP280;68451;49.510;6.026;2023-04-19T05:09:29;98604.66;;;7.77
79053;BMP280;68451;49.510;6.026;2023-04-19T05:11:55;98573.88;;;7.53
79053;BMP280;68451;49.510;6.026;2023-04-19T05:14:20;98603.63;;;7.72
79053;BMP280;68451;49.510;6.026;2023-04-19T05:16:46;98561.84;;;7.45
79053;BMP280;68451;49.510;6.026;2023-04-19T05:19:11;98624.53;;;7.85
79053;BMP280;68451;49.510;6.026;2023-04-19T05:21:37;98633.25;;;7.77
79053;BMP280;68451;49.510;6.026;2023-04-19T05:24:03;98581.44;;;7.48
79053;BMP280;68451;49.510;6.026;2023-04-19T05:26:28;98470.97;;;6.82
79053;BMP280;68451;49.510;6.026;2023-04-19T05:28:54;98648.41;;;7.95
79053;BMP280;68451;49.510;6.026;2023-04-19T05:31:20;98597.00;;;7.69
79053;BMP280;68451;49.510;6.026;2023-04-19T05:33:47;98572.84;;;7.75
79053;BMP280;68451;49.510;6.026;2023-04-19T05:36:12;98611.19;;;8.22
79053;BMP280;68451;49.510;6.026;2023-04-19T05:38:38;98624.63;;;8.26
79053;BMP280;68451;49.510;6.026;2023-04-19T05:41:03;98629.22;;;8.24
79053;BMP280;68451;49.510;6.026;2023-04-19T05:43:29;98442.81;;;7.06
79053;BMP280;68451;49.510;6.026;2023-04-19T05:45:55;98657.53;;;8.33
79053;BMP280;68451;49.510;6.026;2023-04-19T05:48:21;98454.81;;;7.07
79053;BMP280;68451;49.510;6.026;2023-04-19T05:50:46;98609.84;;;7.98
79053;BMP280;68451;49.510;6.026;2023-04-19T05:53:12;98615.41;;;7.95
79053;BMP280;68451;49.510;6.026;2023-04-19T05:55:37;98615.63;;;8.00
79053;BMP280;68451;49.510;6.026;2023-04-19T05:58:03;98615.50;;;8.08
79053;BMP280;68451;49.510;6.026;2023-04-19T06:00:28;98431.81;;;6.83
79053;BMP280;68451;49.510;6.026;2023-04-19T06:02:54;98636.03;;;8.25
79053;BMP280;68451;49.510;6.026;2023-04-19T06:05:19;98633.91;;;8.35
79053;BMP280;68451;49.510;6.026;2023-04-19T06:07:45;98647.84;;;8.55
79053;BMP280;68451;49.510;6.026;2023-04-19T06:10:10;98482.03;;;7.67
79053;BMP280;68451;49.510;6.026;2023-04-19T06:12:36;98595.38;;;8.51
79053;BMP280;68451;49.510;6.026;2023-04-19T06:15:01;98576.19;;;8.52
79053;BMP280;68451;49.510;6.026;2023-04-19T06:17:27;98611.94;;;8.85
79053;BMP280;68451;49.510;6.026;2023-04-19T06:19:53;98590.88;;;8.80
79053;BMP280;68451;49.510;6.026;2023-04-19T06:22:19;98625.47;;;9.15
79053;BMP280;68451;49.510;6.026;2023-04-19T06:24:46;98611.66;;;9.14
79053;BMP280;68451;49.510;6.026;2023-04-19T06:27:13;98579.72;;;8.99
79053;BMP280;68451;49.510;6.026;2023-04-19T06:29:39;98632.53;;;9.34
79053;BMP280;68451;49.510;6.026;2023-04-19T06:32:05;98594.63;;;9.25
79053;BMP280;68451;49.510;6.026;2023-04-19T06:34:30;98600.03;;;9.30
79053;BMP280;68451;49.510;6.026;2023-04-19T06:36:56;98611.47;;;9.42
79053;BMP280;68451;49.510;6.026;2023-04-19T06:39:22;98595.66;;;9.37
79053;BMP280;68451;49.510;6.026;2023-04-19T06:41:47;98616.13;;;9.53
79053;BMP280;68451;49.510;6.026;2023-04-19T06:44:13;98506.59;;;8.87
79053;BMP280;68451;49.510;6.026;2023-04-19T06:46:38;98556.34;;;9.38
79053;BMP280;68451;49.510;6.026;2023-04-19T06:49:04;98495.19;;;9.08
79053;BMP280;68451;49.510;6.026;2023-04-19T06:51:30;98527.50;;;9.27
79053;BMP280;68451;49.510;6.026;2023-04-19T06:53:55;98648.66;;;10.23
79053;BMP280;68451;49.510;6.026;2023-04-19T06:56:46;98658.28;;;10.29
79053;BMP280;68451;49.510;6.026;2023-04-19T06:59:12;98573.81;;;9.84
79053;BMP280;68451;49.510;6.026;2023-04-19T07:01:38;98641.00;;;10.15
79053;BMP280;68451;49.510;6.026;2023-04-19T07:04:05;98591.06;;;9.78
79053;BMP280;68451;49.510;6.026;2023-04-19T07:06:31;98570.00;;;9.73
79053;BMP280;68451;49.510;6.026;2023-04-19T07:08:57;98341.50;;;8.36
79053;BMP280;68451;49.510;6.026;2023-04-19T07:11:23;98613.75;;;10.04
79053;BMP280;68451;49.510;6.026;2023-04-19T07:13:49;98631.78;;;10.19
79053;BMP280;68451;49.510;6.026;2023-04-19T07:16:14;98634.19;;;10.27
79053;BMP280;68451;49.510;6.026;2023-04-19T07:18:40;98627.34;;;10.46
79053;BMP280;68451;49.510;6.026;2023-04-19T07:21:05;98402.03;;;9.04
79053;BMP280;68451;49.510;6.026;2023-04-19T07:23:31;98417.25;;;9.26
79053;BMP280;68451;49.510;6.026;2023-04-19T07:25:56;98651.56;;;10.72
79053;BMP280;68451;49.510;6.026;2023-04-19T07:28:22;98573.38;;;10.20
79053;BMP280;68451;49.510;6.026;2023-04-19T07:30:47;98503.16;;;9.92
79053;BMP280;68451;49.510;6.026;2023-04-19T07:33:13;98643.88;;;10.91
79053;BMP280;68451;49.510;6.026;2023-04-19T07:35:39;98599.34;;;10.72
79053;BMP280;68451;49.510;6.026;2023-04-19T07:38:04;98589.13;;;10.64
79053;BMP280;68451;49.510;6.026;2023-04-19T07:40:30;98658.88;;;11.08
79053;BMP280;68451;49.510;6.026;2023-04-19T07:42:56;98596.34;;;10.69
79053;BMP280;68451;49.510;6.026;2023-04-19T07:45:22;98632.81;;;10.95
79053;BMP280;68451;49.510;6.026;2023-04-19T07:47:48;98650.03;;;11.03
79053;BMP280;68451;49.510;6.026;2023-04-19T07:50:13;98609.16;;;10.77
79053;BMP280;68451;49.510;6.026;2023-04-19T07:52:39;98670.94;;;11.03
79053;BMP280;68451;49.510;6.026;2023-04-19T07:55:05;98588.75;;;10.54
79053;BMP280;68451;49.510;6.026;2023-04-19T07:57:31;98654.09;;;10.99
79053;BMP280;68451;49.510;6.026;2023-04-19T07:59:56;98641.25;;;10.97
79053;BMP280;68451;49.510;6.026;2023-04-19T08:02:26;98629.38;;;10.95
79053;BMP280;68451;49.510;6.026;2023-04-19T08:04:52;98600.13;;;10.73
79053;BMP280;68451;49.510;6.026;2023-04-19T08:07:18;98612.81;;;10.69
79053;BMP280;68451;49.510;6.026;2023-04-19T08:09:43;98649.72;;;10.86
79053;BMP280;68451;49.510;6.026;2023-04-19T08:12:09;98625.63;;;10.77
79053;BMP280;68451;49.510;6.026;2023-04-19T08:14:34;98622.81;;;10.79
79053;BMP280;68451;49.510;6.026;2023-04-19T08:17:03;98645.28;;;10.87
79053;BMP280;68451;49.510;6.026;2023-04-19T08:19:29;98620.41;;;10.84
79053;BMP280;68451;49.510;6.026;2023-04-19T08:21:54;98380.75;;;9.46
79053;BMP280;68451;49.510;6.026;2023-04-19T08:24:20;98681.69;;;11.33
79053;BMP280;68451;49.510;6.026;2023-04-19T08:26:45;98593.03;;;10.93
79053;BMP280;68451;49.510;6.026;2023-04-19T08:29:21;98632.09;;;11.19
79053;BMP280;68451;49.510;6.026;2023-04-19T08:31:46;98514.31;;;10.76
79053;BMP280;68451;49.510;6.026;2023-04-19T08:34:12;98621.59;;;11.57
79053;BMP280;68451;49.510;6.026;2023-04-19T08:36:37;98640.38;;;11.79
79053;BMP280;68451;49.510;6.026;2023-04-19T08:39:03;98617.06;;;11.78
79053;BMP280;68451;49.510;6.026;2023-04-19T08:41:31;98633.06;;;11.88
79053;BMP280;68451;49.510;6.026;2023-04-19T08:43:57;98638.69;;;11.91
79053;BMP280;68451;49.510;6.026;2023-04-19T08:46:24;98628.06;;;11.86
79053;BMP280;68451;49.510;6.026;2023-04-19T08:48:51;98591.56;;;11.66
79053;BMP280;68451;49.510;6.026;2023-04-19T08:51:18;98659.69;;;12.09
79053;BMP280;68451;49.510;6.026;2023-04-19T08:53:44;98619.50;;;11.97
79053;BMP280;68451;49.510;6.026;2023-04-19T08:56:10;98621.19;;;12.10
79053;BMP280;68451;49.510;6.026;2023-04-19T08:58:36;98608.63;;;12.19
79053;BMP280;68451;49.510;6.026;2023-04-19T09:01:06;98530.66;;;11.59
79053;BMP280;68451;49.510;6.026;2023-04-19T09:03:32;98494.19;;;11.40
79053;BMP280;68451;49.510;6.026;2023-04-19T09:05:59;98362.78;;;10.58
79053;BMP280;68451;49.510;6.026;2023-04-19T09:08:27;98485.84;;;11.31
79053;BMP280;68451;49.510;6.026;2023-04-19T09:10:58;98599.09;;;12.06
79053;BMP280;68451;49.510;6.026;2023-04-19T09:13:24;98607.34;;;12.28
79053;BMP280;68451;49.510;6.026;2023-04-19T09:15:51;98493.50;;;11.76
79053;BMP280;68451;49.510;6.026;2023-04-19T09:18:18;98490.91;;;11.94
79053;BMP280;68451;49.510;6.026;2023-04-19T09:20:44;98626.03;;;13.04
79053;BMP280;68451;49.510;6.026;2023-04-19T09:23:14;98589.75;;;12.89
79053;BMP280;68451;49.510;6.026;2023-04-19T09:25:51;98602.53;;;12.97
79053;BMP280;68451;49.510;6.026;2023-04-19T09:28:18;98589.19;;;12.99
79053;BMP280;68451;49.510;6.026;2023-04-19T09:30:43;98528.91;;;12.69
79053;BMP280;68451;49.510;6.026;2023-04-19T09:33:09;98583.94;;;12.99
79053;BMP280;68451;49.510;6.026;2023-04-19T09:35:42;98613.00;;;13.16
79053;BMP280;68451;49.510;6.026;2023-04-19T09:38:09;98627.03;;;13.21
79053;BMP280;68451;49.510;6.026;2023-04-19T09:40:35;98575.16;;;12.93
79053;BMP280;68451;49.510;6.026;2023-04-19T09:43:01;98553.59;;;12.91
79053;BMP280;68451;49.510;6.026;2023-04-19T09:45:38;98606.91;;;13.33
79053;BMP280;68451;49.510;6.026;2023-04-19T09:48:05;98463.69;;;12.79
79053;BMP280;68451;49.510;6.026;2023-04-19T09:50:32;98606.66;;;13.76
79053;BMP280;68451;49.510;6.026;2023-04-19T09:52:58;98553.03;;;13.61
79053;BMP280;68451;49.510;6.026;2023-04-19T09:55:25;98535.34;;;13.68
79053;BMP280;68451;49.510;6.026;2023-04-19T09:57:51;98402.78;;;13.07
79053;BMP280;68451;49.510;6.026;2023-04-19T10:00:17;98591.63;;;14.18
79053;BMP280;68451;49.510;6.026;2023-04-19T10:02:43;98553.84;;;14.08
79053;BMP280;68451;49.510;6.026;2023-04-19T10:05:14;98554.16;;;14.34
79053;BMP280;68451;49.510;6.026;2023-04-19T10:07:40;98442.03;;;13.83
79053;BMP280;68451;49.510;6.026;2023-04-19T10:10:06;98542.47;;;14.94
79053;BMP280;68451;49.510;6.026;2023-04-19T10:12:34;98447.00;;;14.08
79053;BMP280;68451;49.510;6.026;2023-04-19T10:15:00;98527.16;;;14.51
79053;BMP280;68451;49.510;6.026;2023-04-19T10:17:25;98575.72;;;15.00
79053;BMP280;68451;49.510;6.026;2023-04-19T10:19:56;98517.56;;;14.56
79053;BMP280;68451;49.510;6.026;2023-04-19T10:22:24;98574.06;;;15.10
79053;BMP280;68451;49.510;6.026;2023-04-19T10:25:11;98571.63;;;15.20
79053;BMP280;68451;49.510;6.026;2023-04-19T10:27:38;98556.47;;;15.28
79053;BMP280;68451;49.510;6.026;2023-04-19T10:30:05;98442.34;;;14.67
79053;BMP280;68451;49.510;6.026;2023-04-19T10:36:00;98525.38;;;15.08
79053;BMP280;68451;49.510;6.026;2023-04-19T10:38:36;98558.75;;;15.07
79053;BMP280;68451;49.510;6.026;2023-04-19T10:41:02;98558.72;;;14.91
79053;BMP280;68451;49.510;6.026;2023-04-19T10:43:37;98526.22;;;14.68
79053;BMP280;68451;49.510;6.026;2023-04-19T10:46:14;98417.25;;;13.91
79053;BMP280;68451;49.510;6.026;2023-04-19T10:48:49;98300.09;;;12.98
79053;BMP280;68451;49.510;6.026;2023-04-19T10:51:33;98553.38;;;14.22
79053;BMP280;68451;49.510;6.026;2023-04-19T10:54:04;98495.44;;;13.66
79053;BMP280;68451;49.510;6.026;2023-04-19T10:59:20;98494.06;;;13.52
79053;BMP280;68451;49.510;6.026;2023-04-19T11:01:51;98537.66;;;13.87
79053;BMP280;68451;49.510;6.026;2023-04-19T11:04:20;98527.50;;;13.91
79053;BMP280;68451;49.510;6.026;2023-04-19T11:06:59;98370.41;;;13.01
79053;BMP280;68451;49.510;6.026;2023-04-19T11:09:34;98519.13;;;14.17
79053;BMP280;68451;49.510;6.026;2023-04-19T11:12:04;98534.03;;;14.52
79053;BMP280;68451;49.510;6.026;2023-04-19T11:14:43;98533.06;;;14.69
79053;BMP280;68451;49.510;6.026;2023-04-19T11:17:27;98537.81;;;14.84
79053;BMP280;68451;49.510;6.026;2023-04-19T11:20:03;98517.25;;;14.81
79053;BMP280;68451;49.510;6.026;2023-04-19T11:22:32;98496.47;;;14.96
79053;BMP280;68451;49.510;6.026;2023-04-19T11:25:10;98506.41;;;15.22
79053;BMP280;68451;49.510;6.026;2023-04-19T11:27:37;98510.03;;;15.05
79053;BMP280;68451;49.510;6.026;2023-04-19T11:30:08;98511.75;;;14.83
79053;BMP280;68451;49.510;6.026;2023-04-19T11:32:35;98487.44;;;14.47
79053;BMP280;68451;49.510;6.026;2023-04-19T11:35:05;98502.09;;;14.71
79053;BMP280;68451;49.510;6.026;2023-04-19T11:37:36;98450.94;;;14.62
79053;BMP280;68451;49.510;6.026;2023-04-19T11:40:03;98487.84;;;15.12
79053;BMP280;68451;49.510;6.026;2023-04-19T11:42:29;98458.84;;;14.79
79053;BMP280;68451;49.510;6.026;2023-04-19T11:44:58;98467.03;;;15.11
79053;BMP280;68451;49.510;6.026;2023-04-19T11:47:25;98490.47;;;15.46
79053;BMP280;68451;49.510;6.026;2023-04-19T11:49:52;98419.97;;;15.31
79053;BMP280;68451;49.510;6.026;2023-04-19T11:52:23;98423.56;;;15.42
79053;BMP280;68451;49.510;6.026;2023-04-19T11:54:52;98424.22;;;15.49
79053;BMP280;68451;49.510;6.026;2023-04-19T11:57:30;98475.22;;;15.81
79053;BMP280;68451;49.510;6.026;2023-04-19T12:00:07;98459.16;;;15.61
79053;BMP280;68451;49.510;6.026;2023-04-19T12:02:41;98462.56;;;15.45
79053;BMP280;68451;49.510;6.026;2023-04-19T12:05:12;98413.00;;;15.03
79053;BMP280;68451;49.510;6.026;2023-04-19T12:07:58;98340.00;;;14.44
79053;BMP280;68451;49.510;6.026;2023-04-19T12:10:23;98458.25;;;15.05
79053;BMP280;68451;49.510;6.026;2023-04-19T12:12:49;98431.31;;;14.82
79053;BMP280;68451;49.510;6.026;2023-04-19T12:15:15;98395.97;;;14.44
79053;BMP280;68451;49.510;6.026;2023-04-19T12:18:00;98468.34;;;14.80
79053;BMP280;68451;49.510;6.026;2023-04-19T12:20:34;98423.47;;;14.53
79053;BMP280;68451;49.510;6.026;2023-04-19T12:23:00;98335.72;;;13.98
79053;BMP280;68451;49.510;6.026;2023-04-19T12:25:31;98322.00;;;13.79
79053;BMP280;68451;49.510;6.026;2023-04-19T12:28:02;98377.41;;;14.22
79053;BMP280;68451;49.510;6.026;2023-04-19T12:30:28;98423.97;;;14.67
79053;BMP280;68451;49.510;6.026;2023-04-19T12:32:54;98404.63;;;14.73
79053;BMP280;68451;49.510;6.026;2023-04-19T12:35:24;98418.91;;;14.94
79053;BMP280;68451;49.510;6.026;2023-04-19T12:37:55;98179.09;;;13.41
79053;BMP280;68451;49.510;6.026;2023-04-19T12:40:22;98362.16;;;14.64
79053;BMP280;68451;49.510;6.026;2023-04-19T12:42:48;98425.00;;;14.83
79053;BMP280;68451;49.510;6.026;2023-04-19T12:45:14;98399.84;;;14.87
79053;BMP280;68451;49.510;6.026;2023-04-19T12:47:40;98434.03;;;15.20
79053;BMP280;68451;49.510;6.026;2023-04-19T12:53:17;98408.69;;;14.97
79053;BMP280;68451;49.510;6.026;2023-04-19T12:55:43;98389.41;;;15.08
79053;BMP280;68451;49.510;6.026;2023-04-19T12:58:14;98390.63;;;15.17
79053;BMP280;68451;49.510;6.026;2023-04-19T13:00:41;98392.75;;;15.20
79053;BMP280;68451;49.510;6.026;2023-04-19T13:03:07;98385.78;;;15.31
79053;BMP280;68451;49.510;6.026;2023-04-19T13:05:32;98247.66;;;14.52
79053;BMP280;68451;49.510;6.026;2023-04-19T13:07:58;98354.47;;;15.30
79053;BMP280;68451;49.510;6.026;2023-04-19T13:10:24;98221.69;;;14.22
79053;BMP280;68451;49.510;6.026;2023-04-19T13:12:50;98407.56;;;15.43
79053;BMP280;68451;49.510;6.026;2023-04-19T13:15:16;98357.88;;;15.08
79053;BMP280;68451;49.510;6.026;2023-04-19T13:17:41;98349.91;;;15.03
79053;BMP280;68451;49.510;6.026;2023-04-19T13:20:07;98330.63;;;14.81
79053;BMP280;68451;49.510;6.026;2023-04-19T13:22:33;98387.97;;;15.01
79053;BMP280;68451;49.510;6.026;2023-04-19T13:24:59;98245.84;;;14.07
79053;BMP280;68451;49.510;6.026;2023-04-19T13:27:25;98332.84;;;14.56
79053;BMP280;68451;49.510;6.026;2023-04-19T13:29:50;98337.38;;;14.44
79053;BMP280;68451;49.510;6.026;2023-04-19T13:32:15;98283.28;;;14.14
79053;BMP280;68451;49.510;6.026;2023-04-19T13:34:41;98347.81;;;14.55
79053;BMP280;68451;49.510;6.026;2023-04-19T13:37:07;98241.69;;;13.95
79053;BMP280;68451;49.510;6.026;2023-04-19T13:39:33;98358.19;;;14.78
79053;BMP280;68451;49.510;6.026;2023-04-19T13:41:59;98319.88;;;14.66
79053;BMP280;68451;49.510;6.026;2023-04-19T13:44:27;98368.22;;;14.98
79053;BMP280;68451;49.510;6.026;2023-04-19T13:46:52;98318.34;;;14.70
79053;BMP280;68451;49.510;6.026;2023-04-19T13:49:18;98348.53;;;15.01
79053;BMP280;68451;49.510;6.026;2023-04-19T13:51:43;98324.06;;;15.00
79053;BMP280;68451;49.510;6.026;2023-04-19T13:54:09;98283.41;;;14.86
79053;BMP280;68451;49.510;6.026;2023-04-19T13:56:34;98318.31;;;15.20
79053;BMP280;68451;49.510;6.026;2023-04-19T13:59:00;98284.84;;;15.15
79053;BMP280;68451;49.510;6.026;2023-04-19T14:01:26;98258.34;;;15.00
79053;BMP280;68451;49.510;6.026;2023-04-19T14:03:51;98337.31;;;15.44
79053;BMP280;68451;49.510;6.026;2023-04-19T14:06:17;98198.16;;;14.44
79053;BMP280;68451;49.510;6.026;2023-04-19T14:08:43;98323.72;;;15.13
79053;BMP280;68451;49.510;6.026;2023-04-19T14:11:09;98283.25;;;14.76
79053;BMP280;68451;49.510;6.026;2023-04-19T14:13:34;98221.50;;;14.28
79053;BMP280;68451;49.510;6.026;2023-04-19T14:16:00;98313.66;;;14.72
79053;BMP280;68451;49.510;6.026;2023-04-19T14:18:27;98316.22;;;14.67
79053;BMP280;68451;49.510;6.026;2023-04-19T14:20:54;98323.78;;;14.63
79053;BMP280;68451;49.510;6.026;2023-04-19T14:23:19;98213.84;;;13.77